sensor_id;sensor_type;location;lat;lon;timestamp;pressure;altitude;pressure_sealevel;temperature
70389;BMP280;58659;49.050;8.530;2023-03-01T00:01:17;100837.75;;;-1.18
70389;BMP280;58659;49.050;8.530;2023-03-01T00:03:43;100826.00;;;-1.36
70389;BMP280;58659;49.050;8.530;2023-03-01T00:06:09;100842.50;;;-1.32
70389;BMP280;58659;49.050;8.530;2023-03-01T00:08:35;100839.44;;;-1.29
70389;BMP280;58659;49.050;8.530;2023-03-01T00:11:20;100837.88;;;-1.30
70389;BMP280;58659;49.050;8.530;2023-03-01T00:13:47;100839.34;;;-1.34
70389;BMP280;58659;49.050;8.530;2023-03-01T00:16:16;100843.50;;;-1.33
70389;BMP280;58659;49.050;8.530;2023-03-01T00:18:41;100821.34;;;-1.39
70389;BMP280;58659;49.050;8.530;2023-03-01T00:21:07;100834.63;;;-1.42
70389;BMP280;58659;49.050;8.530;2023-03-01T00:23:36;100828.84;;;-1.54
70389;BMP280;58659;49.050;8.530;2023-03-01T00:26:02;100828.94;;;-1.66
70389;BMP280;58659;49.050;8.530;2023-03-01T00:28:27;100839.84;;;-1.75
70389;BMP280;58659;49.050;8.530;2023-03-01T00:30:53;100822.16;;;-1.93
70389;BMP280;58659;49.050;8.530;2023-03-01T00:33:18;100817.47;;;-1.96
70389;BMP280;58659;49.050;8.530;2023-03-01T00:35:44;100814.72;;;-2.12
70389;BMP280;58659;49.050;8.530;2023-03-01T00:38:10;100817.66;;;-2.20
70389;BMP280;58659;49.050;8.530;2023-03-01T00:40:36;100826.38;;;-2.21
70389;BMP280;58659;49.050;8.530;2023-03-01T00:43:02;100820.22;;;-2.20
70389;BMP280;58659;49.050;8.530;2023-03-01T00:45:27;100810.69;;;-2.24
70389;BMP280;58659;49.050;8.530;2023-03-01T00:47:53;100808.13;;;-2.24
70389;BMP280;58659;49.050;8.530;2023-03-01T00:50:19;100820.31;;;-2.15
70389;BMP280;58659;49.050;8.530;2023-03-01T00:52:45;100813.22;;;-2.08
70389;BMP280;58659;49.050;8.530;2023-03-01T00:55:11;100815.34;;;-2.05
70389;BMP280;58659;49.050;8.530;2023-03-01T00:57:36;100811.22;;;-2.06
70389;BMP280;58659;49.050;8.530;2023-03-01T01:00:03;100817.66;;;-2.03
70389;BMP280;58659;49.050;8.530;2023-03-01T01:02:29;100815.63;;;-2.01
70389;BMP280;58659;49.050;8.530;2023-03-01T01:04:54;100812.91;;;-1.94
70389;BMP280;58659;49.050;8.530;2023-03-01T01:07:20;100810.91;;;-1.92
70389;BMP280;58659;49.050;8.530;2023-03-01T01:09:45;100821.66;;;-1.90
70389;BMP280;58659;49.050;8.530;2023-03-01T01:12:11;100815.88;;;-1.86
70389;BMP280;58659;49.050;8.530;2023-03-01T01:14:36;100814.94;;;-1.80
70389;BMP280;58659;49.050;8.530;2023-03-01T01:17:02;100812.66;;;-1.76
70389;BMP280;58659;49.050;8.530;2023-03-01T01:19:27;100798.53;;;-1.79
70389;BMP280;58659;49.050;8.530;2023-03-01T01:21:52;100806.59;;;-1.70
70389;BMP280;58659;49.050;8.530;2023-03-01T01:24:18;100804.66;;;-1.63
70389;BMP280;58659;49.050;8.530;2023-03-01T01:26:43;100799.59;;;-1.58
70389;BMP280;58659;49.050;8.530;2023-03-01T01:29:09;100797.41;;;-1.49
70389;BMP280;58659;49.050;8.530;2023-03-01T01:31:36;100799.19;;;-1.50
70389;BMP280;58659;49.050;8.530;2023-03-01T01:34:05;100791.97;;;-1.53
70389;BMP280;58659;49.050;8.530;2023-03-01T01:36:32;100791.50;;;-1.50
70389;BMP280;58659;49.050;8.530;2023-03-01T01:38:57;100791.97;;;-1.53
70389;BMP280;58659;49.050;8.530;2023-03-01T01:41:24;100796.63;;;-1.50
70389;BMP280;58659;49.050;8.530;2023-03-01T01:46:40;100775.88;;;-1.70
70389;BMP280;58659;49.050;8.530;2023-03-01T01:51:50;100773.25;;;-1.75
70389;BMP280;58659;49.050;8.530;2023-03-01T01:54:22;100770.91;;;-1.77
70389;BMP280;58659;49.050;8.530;2023-03-01T01:56:52;100770.13;;;-1.77
70389;BMP280;58659;49.050;8.530;2023-03-01T01:59:20;100767.63;;;-1.72
70389;BMP280;58659;49.050;8.530;2023-03-01T02:01:50;100759.50;;;-1.69
70389;BMP280;58659;49.050;8.530;2023-03-01T02:04:15;100756.94;;;-1.69
70389;BMP280;58659;49.050;8.530;2023-03-01T02:06:46;100769.78;;;-1.64
70389;BMP280;58659;49.050;8.530;2023-03-01T02:09:15;100749.25;;;-1.69
70389;BMP280;58659;49.050;8.530;2023-03-01T02:11:43;100749.69;;;-1.72
70389;BMP280;58659;49.050;8.530;2023-03-01T02:14:08;100758.47;;;-1.68
70389;BMP280;58659;49.050;8.530;2023-03-01T02:16:34;100752.81;;;-1.70
70389;BMP280;58659;49.050;8.530;2023-03-01T02:19:00;100747.13;;;-1.72
70389;BMP280;58659;49.050;8.530;2023-03-01T02:24:21;100733.75;;;-1.79
70389;BMP280;58659;49.050;8.530;2023-03-01T02:26:51;100741.66;;;-1.81
70389;BMP280;58659;49.050;8.530;2023-03-01T02:29:18;100736.56;;;-1.81
70389;BMP280;58659;49.050;8.530;2023-03-01T02:31:44;100727.47;;;-1.88
70389;BMP280;58659;49.050;8.530;2023-03-01T02:36:43;100725.00;;;-2.00
70389;BMP280;58659;49.050;8.530;2023-03-01T02:39:14;100716.78;;;-2.02
70389;BMP280;58659;49.050;8.530;2023-03-01T02:41:44;100705.69;;;-2.08
70389;BMP280;58659;49.050;8.530;2023-03-01T02:44:11;100705.63;;;-2.13
70389;BMP280;58659;49.050;8.530;2023-03-01T02:46:43;100697.66;;;-2.16
70389;BMP280;58659;49.050;8.530;2023-03-01T02:56:40;100712.31;;;-2.12
70389;BMP280;58659;49.050;8.530;2023-03-01T02:59:06;100717.44;;;-2.12
70389;BMP280;58659;49.050;8.530;2023-03-01T03:01:32;100708.13;;;-2.18
70389;BMP280;58659;49.050;8.530;2023-03-01T03:04:11;100699.38;;;-2.22
70389;BMP280;58659;49.050;8.530;2023-03-01T03:06:42;100705.97;;;-2.26
70389;BMP280;58659;49.050;8.530;2023-03-01T03:09:08;100694.34;;;-2.17
70389;BMP280;58659;49.050;8.530;2023-03-01T03:11:33;100689.50;;;-2.13
70389;BMP280;58659;49.050;8.530;2023-03-01T03:13:58;100702.91;;;-2.06
70389;BMP280;58659;49.050;8.530;2023-03-01T03:16:24;100693.72;;;-2.02
70389;BMP280;58659;49.050;8.530;2023-03-01T03:18:49;100692.25;;;-1.98
70389;BMP280;58659;49.050;8.530;2023-03-01T03:21:15;100683.25;;;-2.01
70389;BMP280;58659;49.050;8.530;2023-03-01T03:23:41;100684.75;;;-2.05
70389;BMP280;58659;49.050;8.530;2023-03-01T03:26:06;100681.72;;;-2.02
70389;BMP280;58659;49.050;8.530;2023-03-01T03:28:33;100685.47;;;-2.09
70389;BMP280;58659;49.050;8.530;2023-03-01T03:30:59;100677.13;;;-2.21
70389;BMP280;58659;49.050;8.530;2023-03-01T03:33:29;100670.06;;;-2.31
70389;BMP280;58659;49.050;8.530;2023-03-01T03:35:54;100679.50;;;-2.31
70389;BMP280;58659;49.050;8.530;2023-03-01T03:38:20;100681.00;;;-2.35
70389;BMP280;58659;49.050;8.530;2023-03-01T03:40:52;100666.88;;;-2.38
70389;BMP280;58659;49.050;8.530;2023-03-01T03:43:22;100664.41;;;-2.33
70389;BMP280;58659;49.050;8.530;2023-03-01T03:45:49;100656.03;;;-2.28
70389;BMP280;58659;49.050;8.530;2023-03-01T03:48:15;100663.00;;;-2.24
70389;BMP280;58659;49.050;8.530;2023-03-01T03:50:41;100655.09;;;-2.22
70389;BMP280;58659;49.050;8.530;2023-03-01T03:53:11;100655.09;;;-2.22
70389;BMP280;58659;49.050;8.530;2023-03-01T03:55:37;100654.31;;;-2.23
70389;BMP280;58659;49.050;8.530;2023-03-01T03:58:05;100655.03;;;-2.27
70389;BMP280;58659;49.050;8.530;2023-03-01T04:00:36;100655.81;;;-2.27
70389;BMP280;58659;49.050;8.530;2023-03-01T04:03:02;100645.47;;;-2.32
70389;BMP280;58659;49.050;8.530;2023-03-01T04:05:28;100640.84;;;-2.35
70389;BMP280;58659;49.050;8.530;2023-03-01T04:07:54;100643.94;;;-2.33
70389;BMP280;58659;49.050;8.530;2023-03-01T04:10:27;100638.50;;;-2.36
70389;BMP280;58659;49.050;8.530;2023-03-01T04:12:53;100643.28;;;-2.45
70389;BMP280;58659;49.050;8.530;2023-03-01T04:15:21;100644.78;;;-2.44
70389;BMP280;58659;49.050;8.530;2023-03-01T04:17:50;100640.28;;;-2.37
70389;BMP280;58659;49.050;8.530;2023-03-01T04:20:18;100640.84;;;-2.35
70389;BMP280;58659;49.050;8.530;2023-03-01T04:22:51;100638.03;;;-2.33
70389;BMP280;58659;49.050;8.530;2023-03-01T04:25:17;100629.03;;;-2.36
70389;BMP280;58659;49.050;8.530;2023-03-01T04:27:42;100623.69;;;-2.34
70389;BMP280;58659;49.050;8.530;2023-03-01T04:30:08;100631.66;;;-2.31
70389;BMP280;58659;49.050;8.530;2023-03-01T04:32:33;100618.81;;;-2.36
70389;BMP280;58659;49.050;8.530;2023-03-01T04:34:59;100632.88;;;-2.38
70389;BMP280;58659;49.050;8.530;2023-03-01T04:37:25;100634.94;;;-2.35
70389;BMP280;58659;49.050;8.530;2023-03-01T04:39:51;100624.69;;;-2.35
70389;BMP280;58659;49.050;8.530;2023-03-01T04:42:17;100630.09;;;-2.32
70389;BMP280;58659;49.050;8.530;2023-03-01T04:44:44;100632.44;;;-2.30
70389;BMP280;58659;49.050;8.530;2023-03-01T04:47:10;100624.56;;;-2.29
70389;BMP280;58659;49.050;8.530;2023-03-01T04:49:35;100625.53;;;-2.30
70389;BMP280;58659;49.050;8.530;2023-03-01T04:52:01;100636.88;;;-2.26
70389;BMP280;58659;49.050;8.530;2023-03-01T04:54:30;100630.28;;;-2.22
70389;BMP280;58659;49.050;8.530;2023-03-01T04:56:55;100641.59;;;-2.18
70389;BMP280;58659;49.050;8.530;2023-03-01T04:59:21;100644.63;;;-2.21
70389;BMP280;58659;49.050;8.530;2023-03-01T05:01:48;100642.53;;;-2.24
70389;BMP280;58659;49.050;8.530;2023-03-01T05:04:14;100638.75;;;-2.21
70389;BMP280;58659;49.050;8.530;2023-03-01T05:06:39;100634.31;;;-2.26
70389;BMP280;58659;49.050;8.530;2023-03-01T05:09:04;100647.88;;;-2.25
70389;BMP280;58659;49.050;8.530;2023-03-01T05:11:30;100646.88;;;-2.24
70389;BMP280;58659;49.050;8.530;2023-03-01T05:13:58;100645.88;;;-2.23
70389;BMP280;58659;49.050;8.530;2023-03-01T05:16:24;100646.78;;;-2.29
70389;BMP280;58659;49.050;8.530;2023-03-01T05:18:49;100636.25;;;-2.33
70389;BMP280;58659;49.050;8.530;2023-03-01T05:21:16;100638.03;;;-2.33
70389;BMP280;58659;49.050;8.530;2023-03-01T05:23:41;100647.97;;;-2.37
70389;BMP280;58659;49.050;8.530;2023-03-01T05:26:07;100638.22;;;-2.40
70389;BMP280;58659;49.050;8.530;2023-03-01T05:28:33;100639.94;;;-2.46
70389;BMP280;58659;49.050;8.530;2023-03-01T05:30:58;100639.31;;;-2.53
70389;BMP280;58659;49.050;8.530;2023-03-01T05:33:25;100645.50;;;-2.49
70389;BMP280;58659;49.050;8.530;2023-03-01T05:35:54;100629.25;;;-2.59
70389;BMP280;58659;49.050;8.530;2023-03-01T05:38:20;100638.00;;;-2.55
70389;BMP280;58659;49.050;8.530;2023-03-01T05:40:47;100638.25;;;-2.57
70389;BMP280;58659;49.050;8.530;2023-03-01T05:43:14;100634.59;;;-2.61
70389;BMP280;58659;49.050;8.530;2023-03-01T05:45:41;100628.38;;;-2.65
70389;BMP280;58659;49.050;8.530;2023-03-01T05:48:07;100622.41;;;-2.70
70389;BMP280;58659;49.050;8.530;2023-03-01T05:50:35;100634.72;;;-2.67
70389;BMP280;58659;49.050;8.530;2023-03-01T05:55:26;100627.06;;;-2.67
70389;BMP280;58659;49.050;8.530;2023-03-01T05:57:52;100628.59;;;-2.66
70389;BMP280;58659;49.050;8.530;2023-03-01T06:00:19;100619.03;;;-2.76
70389;BMP280;58659;49.050;8.530;2023-03-01T06:02:45;100627.41;;;-2.81
70389;BMP280;58659;49.050;8.530;2023-03-01T06:05:12;100621.75;;;-2.83
70389;BMP280;58659;49.050;8.530;2023-03-01T06:07:38;100613.16;;;-2.93
70389;BMP280;58659;49.050;8.530;2023-03-01T06:10:05;100618.00;;;-2.92
70389;BMP280;58659;49.050;8.530;2023-03-01T06:12:32;100618.69;;;-2.80
70389;BMP280;58659;49.050;8.530;2023-03-01T06:14:57;100632.03;;;-2.77
70389;BMP280;58659;49.050;8.530;2023-03-01T06:17:23;100628.47;;;-2.76
70389;BMP280;58659;49.050;8.530;2023-03-01T06:19:48;100623.38;;;-2.76
70389;BMP280;58659;49.050;8.530;2023-03-01T06:22:13;100637.78;;;-2.70
70389;BMP280;58659;49.050;8.530;2023-03-01T06:24:39;100631.16;;;-2.66
70389;BMP280;58659;49.050;8.530;2023-03-01T06:27:04;100637.84;;;-2.65
70389;BMP280;58659;49.050;8.530;2023-03-01T06:29:29;100635.16;;;-2.59
70389;BMP280;58659;49.050;8.530;2023-03-01T06:31:55;100631.09;;;-2.55
70389;BMP280;58659;49.050;8.530;2023-03-01T06:34:20;100639.94;;;-2.46
70389;BMP280;58659;49.050;8.530;2023-03-01T06:36:47;100641.22;;;-2.43
70389;BMP280;58659;49.050;8.530;2023-03-01T06:39:12;100642.22;;;-2.44
70389;BMP280;58659;49.050;8.530;2023-03-01T06:41:38;100642.50;;;-2.46
70389;BMP280;58659;49.050;8.530;2023-03-01T06:44:03;100627.38;;;-2.47
70389;BMP280;58659;49.050;8.530;2023-03-01T06:46:28;100637.13;;;-2.44
70389;BMP280;58659;49.050;8.530;2023-03-01T06:48:54;100639.75;;;-2.39
70389;BMP280;58659;49.050;8.530;2023-03-01T06:51:19;100634.16;;;-2.36
70389;BMP280;58659;49.050;8.530;2023-03-01T06:53:46;100635.22;;;-2.32
70389;BMP280;58659;49.050;8.530;2023-03-01T06:56:11;100633.69;;;-2.33
70389;BMP280;58659;49.050;8.530;2023-03-01T06:58:40;100634.78;;;-2.29
70389;BMP280;58659;49.050;8.530;2023-03-01T07:01:09;100632.53;;;-2.25
70389;BMP280;58659;49.050;8.530;2023-03-01T07:03:35;100622.06;;;-2.24
70389;BMP280;58659;49.050;8.530;2023-03-01T07:06:00;100611.59;;;-2.22
70389;BMP280;58659;49.050;8.530;2023-03-01T07:08:26;100627.22;;;-2.19
70389;BMP280;58659;49.050;8.530;2023-03-01T07:10:58;100617.81;;;-2.13
70389;BMP280;58659;49.050;8.530;2023-03-01T07:13:24;100609.31;;;-2.19
70389;BMP280;58659;49.050;8.530;2023-03-01T07:15:49;100607.41;;;-2.07
70389;BMP280;58659;49.050;8.530;2023-03-01T07:18:15;100610.91;;;-2.13
70389;BMP280;58659;49.050;8.530;2023-03-01T07:20:40;100615.81;;;-2.11
70389;BMP280;58659;49.050;8.530;2023-03-01T07:26:26;100609.50;;;-2.04
70389;BMP280;58659;49.050;8.530;2023-03-01T07:28:51;100618.78;;;-1.97
70389;BMP280;58659;49.050;8.530;2023-03-01T07:31:16;100607.50;;;-1.96
70389;BMP280;58659;49.050;8.530;2023-03-01T07:33:42;100614.22;;;-1.90
70389;BMP280;58659;49.050;8.530;2023-03-01T07:36:07;100614.34;;;-1.85
70389;BMP280;58659;49.050;8.530;2023-03-01T07:38:33;100608.25;;;-1.79
70389;BMP280;58659;49.050;8.530;2023-03-01T07:41:03;100615.72;;;-1.73
70389;BMP280;58659;49.050;8.530;2023-03-01T07:43:29;100612.41;;;-1.73
70389;BMP280;58659;49.050;8.530;2023-03-01T07:45:58;100611.44;;;-1.67
70389;BMP280;58659;49.050;8.530;2023-03-01T07:48:23;100603.03;;;-1.63
70389;BMP280;58659;49.050;8.530;2023-03-01T07:50:48;100606.41;;;-1.57
70389;BMP280;58659;49.050;8.530;2023-03-01T07:53:14;100592.59;;;-1.56
70389;BMP280;58659;49.050;8.530;2023-03-01T07:55:39;100600.06;;;-1.49
70389;BMP280;58659;49.050;8.530;2023-03-01T07:58:04;100598.84;;;-1.42
70389;BMP280;58659;49.050;8.530;2023-03-01T08:00:30;100597.81;;;-1.41
70389;BMP280;58659;49.050;8.530;2023-03-01T08:02:58;100599.75;;;-1.31
70389;BMP280;58659;49.050;8.530;2023-03-01T08:05:24;100602.09;;;-1.25
70389;BMP280;58659;49.050;8.530;2023-03-01T08:07:49;100604.44;;;-1.18
70389;BMP280;58659;49.050;8.530;2023-03-01T08:10:14;100599.06;;;-1.16
70389;BMP280;58659;49.050;8.530;2023-03-01T08:12:40;100601.22;;;-1.03
70389;BMP280;58659;49.050;8.530;2023-03-01T08:15:05;100608.19;;;-0.99
70389;BMP280;58659;49.050;8.530;2023-03-01T08:17:31;100610.03;;;-0.89
70389;BMP280;58659;49.050;8.530;2023-03-01T08:19:56;100600.06;;;-0.86
70389;BMP280;58659;49.050;8.530;2023-03-01T08:22:22;100601.41;;;-0.78
70389;BMP280;58659;49.050;8.530;2023-03-01T08:24:47;100603.22;;;-0.68
70389;BMP280;58659;49.050;8.530;2023-03-01T08:27:14;100601.47;;;-0.63
70389;BMP280;58659;49.050;8.530;2023-03-01T08:29:40;100595.34;;;-0.57
70389;BMP280;58659;49.050;8.530;2023-03-01T08:32:05;100584.03;;;-0.61
70389;BMP280;58659;49.050;8.530;2023-03-01T08:34:30;100590.22;;;-0.57
70389;BMP280;58659;49.050;8.530;2023-03-01T08:36:56;100601.50;;;-0.53
70389;BMP280;58659;49.050;8.530;2023-03-01T08:39:22;100586.41;;;-0.44
70389;BMP280;58659;49.050;8.530;2023-03-01T08:41:47;100599.03;;;-0.32
70389;BMP280;58659;49.050;8.530;2023-03-01T08:44:14;100603.22;;;-0.21
70389;BMP280;58659;49.050;8.530;2023-03-01T08:46:42;100591.16;;;-0.16
70389;BMP280;58659;49.050;8.530;2023-03-01T08:49:12;100591.94;;;-0.10
70389;BMP280;58659;49.050;8.530;2023-03-01T08:51:39;100573.97;;;-0.05
70389;BMP280;58659;49.050;8.530;2023-03-01T08:54:06;100593.03;;;0.19
70389;BMP280;58659;49.050;8.530;2023-03-01T08:58:57;100585.09;;;0.46
70389;BMP280;58659;49.050;8.530;2023-03-01T09:01:22;100580.72;;;0.67
70389;BMP280;58659;49.050;8.530;2023-03-01T09:03:47;100576.56;;;0.96
70389;BMP280;58659;49.050;8.530;2023-03-01T09:06:13;100572.41;;;1.20
70389;BMP280;58659;49.050;8.530;2023-03-01T09:08:41;100586.22;;;1.45
70389;BMP280;58659;49.050;8.530;2023-03-01T09:11:12;100573.56;;;1.97
70389;BMP280;58659;49.050;8.530;2023-03-01T09:13:38;100580.03;;;2.34
70389;BMP280;58659;49.050;8.530;2023-03-01T09:16:06;100582.22;;;2.50
70389;BMP280;58659;49.050;8.530;2023-03-01T09:18:32;100576.50;;;2.82
70389;BMP280;58659;49.050;8.530;2023-03-01T09:21:16;100577.59;;;3.24
70389;BMP280;58659;49.050;8.530;2023-03-01T09:23:44;100588.81;;;3.38
70389;BMP280;58659;49.050;8.530;2023-03-01T09:26:20;100583.41;;;3.34
70389;BMP280;58659;49.050;8.530;2023-03-01T09:28:50;100590.03;;;3.22
70389;BMP280;58659;49.050;8.530;2023-03-01T09:31:17;100592.31;;;3.47
70389;BMP280;58659;49.050;8.530;2023-03-01T09:33:46;100578.28;;;3.72
70389;BMP280;58659;49.050;8.530;2023-03-01T09:36:16;100576.81;;;3.84
70389;BMP280;58659;49.050;8.530;2023-03-01T09:38:42;100567.59;;;3.78
70389;BMP280;58659;49.050;8.530;2023-03-01T09:43:55;100566.81;;;3.78
70389;BMP280;58659;49.050;8.530;2023-03-01T09:46:23;100563.94;;;3.98
70389;BMP280;58659;49.050;8.530;2023-03-01T09:48:51;100562.47;;;4.24
70389;BMP280;58659;49.050;8.530;2023-03-01T09:51:24;100567.03;;;4.46
70389;BMP280;58659;49.050;8.530;2023-03-01T09:53:51;100551.13;;;4.53
70389;BMP280;58659;49.050;8.530;2023-03-01T09:56:24;100549.59;;;4.65
70389;BMP280;58659;49.050;8.530;2023-03-01T10:02:21;100557.16;;;4.48
70389;BMP280;58659;49.050;8.530;2023-03-01T10:04:51;100550.47;;;4.15
70389;BMP280;58659;49.050;8.530;2023-03-01T10:09:51;100548.78;;;3.73
70389;BMP280;58659;49.050;8.530;2023-03-01T10:12:20;100541.63;;;3.51
70389;BMP280;58659;49.050;8.530;2023-03-01T10:14:59;100530.72;;;3.54
70389;BMP280;58659;49.050;8.530;2023-03-01T10:17:55;100528.13;;;3.73
70389;BMP280;58659;49.050;8.530;2023-03-01T10:20:28;100525.63;;;3.87
70389;BMP280;58659;49.050;8.530;2023-03-01T10:22:55;100525.63;;;3.68
70389;BMP280;58659;49.050;8.530;2023-03-01T10:31:05;100520.13;;;3.88
70389;BMP280;58659;49.050;8.530;2023-03-01T10:33:37;100516.19;;;4.09
70389;BMP280;58659;49.050;8.530;2023-03-01T10:36:05;100510.28;;;4.36
70389;BMP280;58659;49.050;8.530;2023-03-01T10:38:48;100513.34;;;4.65
70389;BMP280;58659;49.050;8.530;2023-03-01T10:41:16;100508.09;;;4.84
70389;BMP280;58659;49.050;8.530;2023-03-01T10:43:47;100509.75;;;5.16
70389;BMP280;58659;49.050;8.530;2023-03-01T10:46:35;100511.34;;;5.39
70389;BMP280;58659;49.050;8.530;2023-03-01T10:49:21;100503.53;;;5.61
70389;BMP280;58659;49.050;8.530;2023-03-01T10:51:49;100503.59;;;5.92
70389;BMP280;58659;49.050;8.530;2023-03-01T10:54:20;100493.38;;;5.96
70389;BMP280;58659;49.050;8.530;2023-03-01T10:56:47;100499.16;;;6.24
70389;BMP280;58659;49.050;8.530;2023-03-01T10:59:25;100483.47;;;6.37
70389;BMP280;58659;49.050;8.530;2023-03-01T11:02:17;100489.75;;;6.36
70389;BMP280;58659;49.050;8.530;2023-03-01T11:05:13;100476.50;;;6.55
70389;BMP280;58659;49.050;8.530;2023-03-01T11:07:48;100483.09;;;6.87
70389;BMP280;58659;49.050;8.530;2023-03-01T11:10:24;100482.00;;;6.62
70389;BMP280;58659;49.050;8.530;2023-03-01T11:12:51;100478.34;;;6.72
70389;BMP280;58659;49.050;8.530;2023-03-01T11:15:26;100477.00;;;6.83
70389;BMP280;58659;49.050;8.530;2023-03-01T11:17:52;100475.31;;;7.04
70389;BMP280;58659;49.050;8.530;2023-03-01T11:20:34;100467.69;;;7.16
70389;BMP280;58659;49.050;8.530;2023-03-01T11:23:09;100459.25;;;7.36
70389;BMP280;58659;49.050;8.530;2023-03-01T11:25:37;100451.50;;;7.66
70389;BMP280;58659;49.050;8.530;2023-03-01T11:28:05;100447.97;;;7.70
70389;BMP280;58659;49.050;8.530;2023-03-01T11:36:13;100438.38;;;8.00
70389;BMP280;58659;49.050;8.530;2023-03-01T11:38:41;100430.84;;;8.07
70389;BMP280;58659;49.050;8.530;2023-03-01T11:41:14;100425.53;;;8.24
70389;BMP280;58659;49.050;8.530;2023-03-01T11:54:58;100393.06;;;8.84
70389;BMP280;58659;49.050;8.530;2023-03-01T12:05:49;100391.09;;;9.38
70389;BMP280;58659;49.050;8.530;2023-03-01T12:38:13;100359.28;;;9.32
70389;BMP280;58659;49.050;8.530;2023-03-01T12:46:00;100335.66;;;9.77
70389;BMP280;58659;49.050;8.530;2023-03-01T12:48:40;100339.72;;;10.15
70389;BMP280;58659;49.050;8.530;2023-03-01T12:51:14;100329.81;;;10.08
70389;BMP280;58659;49.050;8.530;2023-03-01T12:53:48;100332.59;;;10.27
70389;BMP280;58659;49.050;8.530;2023-03-01T12:56:18;100326.44;;;9.80
70389;BMP280;58659;49.050;8.530;2023-03-01T12:59:24;100321.84;;;9.65
70389;BMP280;58659;49.050;8.530;2023-03-01T13:17:52;100290.44;;;9.73
70389;BMP280;58659;49.050;8.530;2023-03-01T13:20:25;100300.09;;;9.73
70389;BMP280;58659;49.050;8.530;2023-03-01T13:23:08;100296.41;;;9.86
70389;BMP280;58659;49.050;8.530;2023-03-01T13:25:34;100287.22;;;10.04
70389;BMP280;58659;49.050;8.530;2023-03-01T13:31:08;100283.09;;;9.91
70389;BMP280;58659;49.050;8.530;2023-03-01T13:33:48;100274.09;;;10.16
70389;BMP280;58659;49.050;8.530;2023-03-01T13:39:28;100265.28;;;9.93
70389;BMP280;58659;49.050;8.530;2023-03-01T13:41:56;100263.03;;;9.79
70389;BMP280;58659;49.050;8.530;2023-03-01T13:44:36;100266.59;;;9.87
70389;BMP280;58659;49.050;8.530;2023-03-01T13:47:23;100271.06;;;10.14
70389;BMP280;58659;49.050;8.530;2023-03-01T13:50:03;100266.34;;;9.92
70389;BMP280;58659;49.050;8.530;2023-03-01T13:52:37;100265.84;;;9.86
70389;BMP280;58659;49.050;8.530;2023-03-01T13:55:16;100263.53;;;9.97
70389;BMP280;58659;49.050;8.530;2023-03-01T13:57:46;100255.69;;;9.97
70389;BMP280;58659;49.050;8.530;2023-03-01T14:00:34;100259.50;;;10.15
70389;BMP280;58659;49.050;8.530;2023-03-01T14:03:24;100257.28;;;10.02
70389;BMP280;58659;49.050;8.530;2023-03-01T14:06:12;100254.53;;;10.10
70389;BMP280;58659;49.050;8.530;2023-03-01T14:08:38;100252.31;;;9.69
70389;BMP280;58659;49.050;8.530;2023-03-01T14:19:25;100263.66;;;9.88
70389;BMP280;58659;49.050;8.530;2023-03-01T14:24:39;100255.56;;;9.66
70389;BMP280;58659;49.050;8.530;2023-03-01T14:27:11;100249.28;;;9.55
70389;BMP280;58659;49.050;8.530;2023-03-01T14:29:39;100250.19;;;9.34
70389;BMP280;58659;49.050;8.530;2023-03-01T14:32:15;100249.53;;;9.50
70389;BMP280;58659;49.050;8.530;2023-03-01T14:34:45;100251.03;;;9.51
70389;BMP280;58659;49.050;8.530;2023-03-01T14:37:29;100235.66;;;9.21
70389;BMP280;58659;49.050;8.530;2023-03-01T14:39:55;100240.44;;;9.07
70389;BMP280;58659;49.050;8.530;2023-03-01T14:42:22;100238.13;;;9.18
70389;BMP280;58659;49.050;8.530;2023-03-01T14:44:50;100238.78;;;9.27
70389;BMP280;58659;49.050;8.530;2023-03-01T14:47:28;100240.69;;;9.54
70389;BMP280;58659;49.050;8.530;2023-03-01T14:52:46;100236.31;;;9.70
70389;BMP280;58659;49.050;8.530;2023-03-01T14:55:17;100236.72;;;9.72
70389;BMP280;58659;49.050;8.530;2023-03-01T14:57:44;100243.63;;;9.92
70389;BMP280;58659;49.050;8.530;2023-03-01T15:00:17;100243.34;;;9.82
70389;BMP280;58659;49.050;8.530;2023-03-01T15:02:45;100236.78;;;9.60
70389;BMP280;58659;49.050;8.530;2023-03-01T15:05:13;100256.13;;;9.59
70389;BMP280;58659;49.050;8.530;2023-03-01T15:07:41;100247.22;;;9.60
70389;BMP280;58659;49.050;8.530;2023-03-01T15:10:16;100250.84;;;9.43
70389;BMP280;58659;49.050;8.530;2023-03-01T15:12:42;100243.47;;;9.33
70389;BMP280;58659;49.050;8.530;2023-03-01T15:15:22;100264.97;;;9.18
70389;BMP280;58659;49.050;8.530;2023-03-01T15:17:59;100264.09;;;9.02
70389;BMP280;58659;49.050;8.530;2023-03-01T15:20:27;100244.31;;;9.01
70389;BMP280;58659;49.050;8.530;2023-03-01T15:22:55;100259.31;;;8.80
70389;BMP280;58659;49.050;8.530;2023-03-01T15:25:24;100265.78;;;8.62
70389;BMP280;58659;49.050;8.530;2023-03-01T15:27:51;100269.00;;;8.46
70389;BMP280;58659;49.050;8.530;2023-03-01T15:30:30;100272.69;;;8.45
70389;BMP280;58659;49.050;8.530;2023-03-01T15:33:39;100275.06;;;8.38
70389;BMP280;58659;49.050;8.530;2023-03-01T15:39:02;100285.97;;;8.32
70389;BMP280;58659;49.050;8.530;2023-03-01T15:41:37;100270.44;;;8.23
70389;BMP280;58659;49.050;8.530;2023-03-01T15:44:23;100276.94;;;7.96
70389;BMP280;58659;49.050;8.530;2023-03-01T15:46:50;100264.66;;;7.76
70389;BMP280;58659;49.050;8.530;2023-03-01T15:49:33;100260.91;;;7.65
70389;BMP280;58659;49.050;8.530;2023-03-01T15:52:00;100274.94;;;7.52
70389;BMP280;58659;49.050;8.530;2023-03-01T15:54:27;100273.44;;;7.42
70389;BMP280;58659;49.050;8.530;2023-03-01T15:56:53;100269.94;;;7.38
70389;BMP280;58659;49.050;8.530;2023-03-01T15:59:18;100277.28;;;7.36
70389;BMP280;58659;49.050;8.530;2023-03-01T16:01:44;100269.69;;;7.23
70389;BMP280;58659;49.050;8.530;2023-03-01T16:04:11;100272.06;;;7.07
70389;BMP280;58659;49.050;8.530;2023-03-01T16:06:41;100276.81;;;7.05
70389;BMP280;58659;49.050;8.530;2023-03-01T16:09:06;100261.69;;;6.98
70389;BMP280;58659;49.050;8.530;2023-03-01T16:11:31;100264.63;;;6.88
70389;BMP280;58659;49.050;8.530;2023-03-01T16:13:59;100264.91;;;6.95
70389;BMP280;58659;49.050;8.530;2023-03-01T16:16:24;100261.56;;;6.95
70389;BMP280;58659;49.050;8.530;2023-03-01T16:18:50;100272.38;;;6.97
70389;BMP280;58659;49.050;8.530;2023-03-01T16:21:23;100267.19;;;6.97
70389;BMP280;58659;49.050;8.530;2023-03-01T16:23:50;100267.81;;;6.94
70389;BMP280;58659;49.050;8.530;2023-03-01T16:26:16;100261.88;;;6.93
70389;BMP280;58659;49.050;8.530;2023-03-01T16:28:42;100257.78;;;6.84
70389;BMP280;58659;49.050;8.530;2023-03-01T16:31:08;100249.06;;;6.80